Yuba County Airport Marysville US
ICAO: KMYV
IATA: MYV
Category: Medium
Scheduled Services: No

Elevation: 64 ft
TransAlt. 18000 ft.

Airport Communications:
NORCAL APP/DEP:125.4
ASOS:118.475
RANCHO RDO:122.6
CTAF/UNICOM:123.05

KMYV Zoom In..

If you have problems with the map follow the link
https://www.worldairports.se/pages/airport.php?
ICAO=KMYV

Runways:

(A) RW 05 length 3281 ft width 60 ft
---- / hdg 51

(B) RW 14 length 6006 ft width 150 ft
ILS 110.50 / hdg 141

(C) RW 23 length 3281 ft width 60 ft
---- / hdg 231

(D) RW 32 length 6006 ft width 150 ft
---- / hdg 321

Location; KMYV
Day. 14 / Time. 20.53 Zulu
* Altimeter: 30.06
* Temperature: 14° c. 57.2°f.
* Wind from: 140° Speed 14 kn with Gusts up to 20 kn.
Dewpoint: 08° c.
Visibility: 5 Statute Miles.
Clouds: Broken 7000 ft.
Conditions: Haze.

KMYV 142053Z AUTO 14014G20KT 5SM HZ BKN070 14/08 A3006 RMK AO2 SLP181 T01390078 58011


Wind From 140°
Speed 14 kn.

 
 
jpsmedia.com for Web Design worldairports.se 2018   terms of use